Time;durP1;ratioP1;P1;durP2;ratioP2;P2;SDS_P1;SDS_P2;PMS_P1;PMS_P2;Temp;Humidity;BMP_temperature;BMP_pressure;BME280_temperature;BME280_humidity;BME280_pressure;Samples;Min_cycle;Max_cycle;Signal;HPM_P1;HPM_P2
2024/04/13 00:02:19;;;;;;;;;;;15.50;99.90;;;;;;5349326;26;19929;-47
2024/04/13 00:04:44;;;;;;;;;;;15.40;99.90;;;;;;5345225;26;20247;-48
2024/04/13 00:07:10;;;;;;;;;;;15.40;99.90;;;;;;5335154;26;19931;-47
2024/04/13 00:09:35;;;;;;;;;;;15.40;99.90;;;;;;5320077;26;20000;-48
2024/04/13 00:12:01;;;;;;;;;;;15.40;99.90;;;;;;5350011;26;19937;-48
2024/04/13 00:14:26;;;;;;;;;;;15.40;99.90;;;;;;5348916;26;19942;-48
2024/04/13 00:16:52;;;;;;;;;;;15.40;99.90;;;;;;5335187;26;20000;-47
2024/04/13 00:19:17;;;;;;;;;;;15.30;99.90;;;;;;5340228;26;19934;-47
2024/04/13 00:21:43;;;;;;;;;;;15.30;99.90;;;;;;5332599;26;19934;-47
2024/04/13 00:24:10;;;;;;;;;;;15.30;99.90;;;;;;5329432;26;20001;-47
2024/04/13 00:26:36;;;;;;;;;;;15.30;99.90;;;;;;5334993;26;19934;-47
2024/04/13 00:29:05;;;;;;;;;;;15.30;99.90;;;;;;5322128;26;19940;-47
2024/04/13 00:31:31;;;;;;;;;;;15.30;99.90;;;;;;5334515;26;19930;-47
2024/04/13 00:33:57;;;;;;;;;;;15.30;99.90;;;;;;5349927;26;19941;-47
2024/04/13 00:36:22;;;;;;;;;;;15.20;99.90;;;;;;5332436;26;19930;-47
2024/04/13 00:38:48;;;;;;;;;;;15.20;99.90;;;;;;5329567;26;20362;-47
2024/04/13 00:41:13;;;;;;;;;;;15.30;99.90;;;;;;5332406;26;19931;-47
2024/04/13 00:43:39;;;;;;;;;;;15.20;99.90;;;;;;5330020;26;19946;-47
2024/04/13 00:46:07;;;;;;;;;;;15.20;99.90;;;;;;5349153;26;20261;-48
2024/04/13 00:48:36;;;;;;;;;;;15.20;99.90;;;;;;5348317;26;19930;-47
2024/04/13 00:51:04;;;;;;;;;;;15.20;99.90;;;;;;5331568;26;19936;-49
2024/04/13 00:53:33;;;;;;;;;;;15.20;99.90;;;;;;5326139;26;19938;-50
2024/04/13 00:56:00;;;;;;;;;;;15.20;99.90;;;;;;5321247;26;19930;-50
2024/04/13 00:58:27;;;;;;;;;;;15.20;99.90;;;;;;5344068;26;19930;-49
2024/04/13 01:00:52;;;;;;;;;;;15.20;99.90;;;;;;5349529;26;20366;-50
2024/04/13 01:03:20;;;;;;;;;;;15.20;99.90;;;;;;5326365;26;19930;-50
2024/04/13 01:05:48;;;;;;;;;;;15.20;99.90;;;;;;5329303;26;19931;-51
2024/04/13 01:08:14;;;;;;;;;;;15.10;99.90;;;;;;5346627;26;20036;-48
2024/04/13 01:10:40;;;;;;;;;;;15.10;99.90;;;;;;5349410;26;19930;-49
2024/04/13 01:13:08;;;;;;;;;;;15.10;99.90;;;;;;5340066;26;19962;-51
2024/04/13 01:15:36;;;;;;;;;;;15.10;99.90;;;;;;5339686;26;19936;-51
2024/04/13 01:18:02;;;;;;;;;;;15.10;99.90;;;;;;5326131;26;19930;-52
2024/04/13 01:20:28;;;;;;;;;;;15.10;99.90;;;;;;5329385;26;19930;-52
2024/04/13 01:22:54;;;;;;;;;;;15.10;99.90;;;;;;5341549;26;19931;-49
2024/04/13 01:25:23;;;;;;;;;;;15.10;99.90;;;;;;5328873;26;19937;-52
2024/04/13 01:27:48;;;;;;;;;;;15.10;99.90;;;;;;5347072;26;19930;-52
2024/04/13 01:30:16;;;;;;;;;;;15.10;99.90;;;;;;5339309;26;19938;-49
2024/04/13 01:32:42;;;;;;;;;;;15.00;99.90;;;;;;5327080;26;19945;-48
2024/04/13 01:35:10;;;;;;;;;;;15.00;99.90;;;;;;5325338;26;21034;-50
2024/04/13 01:37:38;;;;;;;;;;;15.00;99.90;;;;;;5337466;26;19930;-53
2024/04/13 01:40:04;;;;;;;;;;;15.00;99.90;;;;;;5337671;26;20389;-50
2024/04/13 01:42:30;;;;;;;;;;;15.00;99.90;;;;;;5326119;26;20358;-52
2024/04/13 01:44:55;;;;;;;;;;;15.00;99.90;;;;;;5348846;26;20292;-49
2024/04/13 01:47:21;;;;;;;;;;;15.00;99.90;;;;;;5348598;26;19941;-50
2024/04/13 01:49:46;;;;;;;;;;;15.00;99.90;;;;;;5349649;26;20255;-49
2024/04/13 01:52:13;;;;;;;;;;;15.00;99.90;;;;;;5320231;26;19942;-48
2024/04/13 01:54:38;;;;;;;;;;;15.00;99.90;;;;;;5338481;26;19934;-51
2024/04/13 01:57:04;;;;;;;;;;;15.00;99.90;;;;;;5336884;26;19931;-52
2024/04/13 01:59:30;;;;;;;;;;;15.00;99.90;;;;;;5336904;26;19957;-52
2024/04/13 02:01:55;;;;;;;;;;;15.00;99.90;;;;;;5348525;26;19938;-47
2024/04/13 02:04:21;;;;;;;;;;;15.00;99.90;;;;;;5348604;26;19942;-47
2024/04/13 02:06:46;;;;;;;;;;;15.00;99.90;;;;;;5338091;26;20003;-47
2024/04/13 02:09:13;;;;;;;;;;;14.90;99.90;;;;;;5336185;26;19930;-47
2024/04/13 02:11:39;;;;;;;;;;;14.90;99.90;;;;;;5324981;26;19936;-47
2024/04/13 02:14:04;;;;;;;;;;;14.90;99.90;;;;;;5348599;26;19930;-48
2024/04/13 02:16:30;;;;;;;;;;;14.90;99.90;;;;;;5348794;26;19930;-48
2024/04/13 02:18:55;;;;;;;;;;;14.90;99.90;;;;;;5338624;26;19938;-47
2024/04/13 02:21:21;;;;;;;;;;;14.90;99.90;;;;;;5333062;26;19937;-47
2024/04/13 02:23:46;;;;;;;;;;;14.90;99.90;;;;;;5338268;26;19942;-47
2024/04/13 02:26:12;;;;;;;;;;;14.90;99.90;;;;;;5347020;26;19937;-48
2024/04/13 02:28:38;;;;;;;;;;;14.90;99.90;;;;;;5351728;26;19930;-47
2024/04/13 02:31:04;;;;;;;;;;;14.90;99.90;;;;;;5328440;26;19930;-49
2024/04/13 02:33:32;;;;;;;;;;;14.90;99.90;;;;;;5351590;26;20976;-48
2024/04/13 02:36:01;;;;;;;;;;;14.80;99.90;;;;;;5351684;26;19945;-48
2024/04/13 02:38:27;;;;;;;;;;;14.80;99.90;;;;;;5351355;26;19930;-47
2024/04/13 02:40:56;;;;;;;;;;;14.80;99.90;;;;;;5328414;26;20025;-48
2024/04/13 02:43:22;;;;;;;;;;;14.80;99.90;;;;;;5350935;26;20392;-47
2024/04/13 02:45:47;;;;;;;;;;;14.80;99.90;;;;;;5329076;26;20369;-48
2024/04/13 02:48:13;;;;;;;;;;;14.90;99.90;;;;;;5351566;26;20350;-47
2024/04/13 02:50:38;;;;;;;;;;;14.80;99.90;;;;;;5333724;26;20350;-48
2024/04/13 02:53:04;;;;;;;;;;;14.80;99.90;;;;;;5351335;26;19930;-47
2024/04/13 02:55:29;;;;;;;;;;;14.80;99.90;;;;;;5316023;26;20900;-51
2024/04/13 02:57:55;;;;;;;;;;;14.80;99.90;;;;;;5316792;26;19938;-48
2024/04/13 03:00:21;;;;;;;;;;;14.80;99.90;;;;;;5339614;26;19934;-48
2024/04/13 03:02:47;;;;;;;;;;;14.80;99.90;;;;;;5339079;26;19942;-47
2024/04/13 03:05:13;;;;;;;;;;;14.80;99.90;;;;;;5350818;26;19942;-48
2024/04/13 03:07:38;;;;;;;;;;;14.80;99.90;;;;;;5351464;26;19930;-47
2024/04/13 03:10:06;;;;;;;;;;;14.80;99.90;;;;;;5350969;26;20342;-47
2024/04/13 03:12:31;;;;;;;;;;;14.70;99.90;;;;;;5351026;26;19957;-48
2024/04/13 03:14:58;;;;;;;;;;;14.80;99.90;;;;;;5322770;26;19935;-48
2024/04/13 03:17:24;;;;;;;;;;;14.70;99.90;;;;;;5349581;26;19977;-51
2024/04/13 03:19:52;;;;;;;;;;;14.70;99.90;;;;;;5340613;26;20258;-51
2024/04/13 03:22:20;;;;;;;;;;;14.70;99.90;;;;;;5338833;26;19930;-51
2024/04/13 03:24:46;;;;;;;;;;;14.70;99.90;;;;;;5329162;26;19958;-52
2024/04/13 03:27:12;;;;;;;;;;;14.70;99.90;;;;;;5327881;26;19930;-49
2024/04/13 03:29:38;;;;;;;;;;;14.70;99.90;;;;;;5351519;26;19942;-51
2024/04/13 03:32:03;;;;;;;;;;;14.70;99.90;;;;;;5327117;26;19938;-53
2024/04/13 03:34:29;;;;;;;;;;;14.70;99.90;;;;;;5343154;26;19969;-50
2024/04/13 03:36:54;;;;;;;;;;;14.70;99.90;;;;;;5327913;26;19938;-51
2024/04/13 03:39:24;;;;;;;;;;;14.70;99.90;;;;;;5350921;26;19962;-51
2024/04/13 03:41:50;;;;;;;;;;;14.60;99.90;;;;;;5327390;26;19931;-52
2024/04/13 03:44:15;;;;;;;;;;;14.60;99.90;;;;;;5338289;26;19961;-53
2024/04/13 03:46:41;;;;;;;;;;;14.70;99.90;;;;;;5340559;26;19930;-52
2024/04/13 03:49:09;;;;;;;;;;;14.60;99.90;;;;;;5338709;26;20001;-51
2024/04/13 03:51:35;;;;;;;;;;;14.60;99.90;;;;;;5340729;26;19930;-54
2024/04/13 03:54:00;;;;;;;;;;;14.60;99.90;;;;;;5337676;26;19938;-51
2024/04/13 03:56:26;;;;;;;;;;;14.60;99.90;;;;;;5318478;26;19930;-52
2024/04/13 03:58:52;;;;;;;;;;;14.60;99.90;;;;;;5331708;26;19931;-52
2024/04/13 04:01:17;;;;;;;;;;;14.60;99.90;;;;;;5337229;26;19929;-52
2024/04/13 04:03:43;;;;;;;;;;;14.60;99.90;;;;;;5339510;26;19934;-52
2024/04/13 04:06:08;;;;;;;;;;;14.60;99.90;;;;;;5337964;26;19930;-52
2024/04/13 04:08:34;;;;;;;;;;;14.60;99.90;;;;;;5328747;26;20293;-51
2024/04/13 04:10:59;;;;;;;;;;;14.60;99.90;;;;;;5350229;26;19930;-53
2024/04/13 04:13:25;;;;;;;;;;;14.60;99.90;;;;;;5349467;26;19999;-51
2024/04/13 04:15:52;;;;;;;;;;;14.50;99.90;;;;;;5350229;26;19930;-49
2024/04/13 04:18:18;;;;;;;;;;;14.50;99.90;;;;;;5346173;26;19930;-53
2024/04/13 04:20:45;;;;;;;;;;;14.50;99.90;;;;;;5327693;26;19954;-53
2024/04/13 04:23:11;;;;;;;;;;;14.50;99.90;;;;;;5327110;26;19937;-53
2024/04/13 04:25:36;;;;;;;;;;;14.50;99.90;;;;;;5348804;26;19929;-47
2024/04/13 04:28:02;;;;;;;;;;;14.50;99.90;;;;;;5349528;26;19937;-47
2024/04/13 04:30:27;;;;;;;;;;;14.50;99.90;;;;;;5335720;26;19962;-49
2024/04/13 04:32:53;;;;;;;;;;;14.50;99.90;;;;;;5349867;26;19934;-47
2024/04/13 04:35:18;;;;;;;;;;;14.50;99.90;;;;;;5349400;26;19930;-48
2024/04/13 04:37:44;;;;;;;;;;;14.50;99.90;;;;;;5349371;26;19942;-48
2024/04/13 04:40:10;;;;;;;;;;;14.50;99.90;;;;;;5326414;26;19966;-48
2024/04/13 04:42:36;;;;;;;;;;;14.50;99.90;;;;;;5337623;26;19931;-51
2024/04/13 04:45:02;;;;;;;;;;;14.50;99.90;;;;;;5338001;26;19959;-47
2024/04/13 04:47:28;;;;;;;;;;;14.40;99.90;;;;;;5327534;26;19937;-48
2024/04/13 04:49:53;;;;;;;;;;;14.50;99.90;;;;;;5327001;26;20818;-50
2024/04/13 04:52:19;;;;;;;;;;;14.40;99.90;;;;;;5331338;26;20007;-48
2024/04/13 04:54:44;;;;;;;;;;;14.40;99.90;;;;;;5348513;26;20550;-47
2024/04/13 04:57:10;;;;;;;;;;;14.40;99.90;;;;;;5348446;26;19980;-48
2024/04/13 04:59:35;;;;;;;;;;;14.40;99.90;;;;;;5349321;26;20000;-49
2024/04/13 05:02:01;;;;;;;;;;;14.40;99.90;;;;;;5328167;26;19940;-48
2024/04/13 05:04:27;;;;;;;;;;;14.30;99.90;;;;;;5347469;26;20000;-47
2024/04/13 05:06:53;;;;;;;;;;;14.30;99.90;;;;;;5326238;26;20000;-48
2024/04/13 05:09:18;;;;;;;;;;;14.30;99.90;;;;;;5336527;26;19942;-47
2024/04/13 05:11:44;;;;;;;;;;;14.30;99.90;;;;;;5326493;26;19953;-49
2024/04/13 05:14:10;;;;;;;;;;;14.30;99.90;;;;;;5341938;26;19936;-49
2024/04/13 05:16:39;;;;;;;;;;;14.30;99.90;;;;;;5349305;26;20483;-52
2024/04/13 05:19:04;;;;;;;;;;;14.30;99.90;;;;;;5336368;26;20274;-50
2024/04/13 05:21:30;;;;;;;;;;;14.30;99.90;;;;;;5338765;26;19936;-48
2024/04/13 05:23:56;;;;;;;;;;;14.30;99.90;;;;;;5339506;26;19930;-48
2024/04/13 05:26:21;;;;;;;;;;;14.30;99.90;;;;;;5337059;26;19937;-49
2024/04/13 05:28:47;;;;;;;;;;;14.30;99.90;;;;;;5340382;26;19930;-48
2024/04/13 05:31:13;;;;;;;;;;;14.30;99.90;;;;;;5348515;26;19936;-51
2024/04/13 05:33:39;;;;;;;;;;;14.30;99.90;;;;;;5349725;26;19930;-49
2024/04/13 05:36:05;;;;;;;;;;;14.30;99.90;;;;;;5349539;26;20350;-47
2024/04/13 05:38:30;;;;;;;;;;;14.30;99.90;;;;;;5342962;26;19958;-48
2024/04/13 05:40:56;;;;;;;;;;;14.30;99.90;;;;;;5341082;26;19963;-48
2024/04/13 05:43:22;;;;;;;;;;;14.30;99.90;;;;;;5331487;26;19936;-47
2024/04/13 05:45:48;;;;;;;;;;;14.30;99.90;;;;;;5319020;26;20261;-47
2024/04/13 05:48:14;;;;;;;;;;;14.30;99.90;;;;;;5337438;26;20282;-47
2024/04/13 05:50:39;;;;;;;;;;;14.20;99.90;;;;;;5312511;26;19931;-48
2024/04/13 05:53:05;;;;;;;;;;;14.20;99.90;;;;;;5313046;26;19982;-48
2024/04/13 05:55:30;;;;;;;;;;;14.20;99.90;;;;;;5342474;26;19933;-47
2024/04/13 05:57:56;;;;;;;;;;;14.30;99.90;;;;;;5348559;26;19931;-46
2024/04/13 06:00:22;;;;;;;;;;;14.20;99.90;;;;;;5314006;27;19930;-48
2024/04/13 06:02:47;;;;;;;;;;;14.20;99.90;;;;;;5334970;26;19930;-47
2024/04/13 06:05:13;;;;;;;;;;;14.20;99.90;;;;;;5333222;26;19937;-48
2024/04/13 06:07:38;;;;;;;;;;;14.20;99.90;;;;;;5327039;26;19930;-48
2024/04/13 06:10:07;;;;;;;;;;;14.20;99.90;;;;;;5347511;26;20606;-48
2024/04/13 06:12:33;;;;;;;;;;;14.20;99.90;;;;;;5348038;26;19930;-48
2024/04/13 06:14:59;;;;;;;;;;;14.20;99.90;;;;;;5331277;26;19934;-49
2024/04/13 06:17:24;;;;;;;;;;;14.20;99.90;;;;;;5347679;26;19937;-47
2024/04/13 06:19:50;;;;;;;;;;;14.20;99.90;;;;;;5324727;26;19967;-48
2024/04/13 06:22:20;;;;;;;;;;;14.20;99.90;;;;;;5325296;26;19930;-49
2024/04/13 06:24:46;;;;;;;;;;;14.20;99.90;;;;;;5345333;26;19930;-47
2024/04/13 06:27:12;;;;;;;;;;;14.20;99.90;;;;;;5346236;26;20288;-50
2024/04/13 06:29:37;;;;;;;;;;;14.20;99.90;;;;;;5313287;26;19931;-47
2024/04/13 06:32:03;;;;;;;;;;;14.30;99.90;;;;;;5336578;26;19976;-46
2024/04/13 06:34:28;;;;;;;;;;;14.30;99.90;;;;;;5325738;26;19930;-47
2024/04/13 06:36:54;;;;;;;;;;;14.30;99.90;;;;;;5346356;26;20373;-47
2024/04/13 06:39:19;;;;;;;;;;;14.30;99.90;;;;;;5314258;26;19938;-47
2024/04/13 06:41:45;;;;;;;;;;;14.30;99.90;;;;;;5353237;26;19938;-47
2024/04/13 06:44:11;;;;;;;;;;;14.30;99.90;;;;;;5378768;26;20320;-49
2024/04/13 06:46:36;;;;;;;;;;;14.30;99.90;;;;;;5370384;26;19929;-47
2024/04/13 06:49:04;;;;;;;;;;;14.30;99.90;;;;;;5371815;26;19944;-48
2024/04/13 06:51:29;;;;;;;;;;;14.30;99.90;;;;;;5370626;26;21298;-47
2024/04/13 06:53:55;;;;;;;;;;;14.30;99.90;;;;;;5369196;26;19945;-47
2024/04/13 06:56:20;;;;;;;;;;;14.40;99.90;;;;;;5357167;26;20024;-47
2024/04/13 06:58:46;;;;;;;;;;;14.40;99.90;;;;;;5353889;26;19930;-47
2024/04/13 07:01:12;;;;;;;;;;;14.40;99.90;;;;;;5339227;26;19962;-47
2024/04/13 07:03:39;;;;;;;;;;;14.40;99.90;;;;;;5330505;26;19930;-47
2024/04/13 07:06:05;;;;;;;;;;;14.40;99.90;;;;;;5349857;26;20382;-47
2024/04/13 07:08:30;;;;;;;;;;;14.50;99.90;;;;;;5358814;26;19930;-47
2024/04/13 07:10:56;;;;;;;;;;;14.50;99.90;;;;;;5347052;26;19999;-49
2024/04/13 07:13:22;;;;;;;;;;;14.50;99.90;;;;;;5337086;26;20278;-51
2024/04/13 07:15:48;;;;;;;;;;;14.60;99.90;;;;;;5330686;26;20008;-53
2024/04/13 07:18:17;;;;;;;;;;;14.50;99.90;;;;;;5333897;26;19937;-53
2024/04/13 07:20:46;;;;;;;;;;;14.60;99.90;;;;;;5348806;26;19937;-52
2024/04/13 07:23:12;;;;;;;;;;;14.70;99.90;;;;;;5356463;26;20294;-47
2024/04/13 07:25:38;;;;;;;;;;;14.70;99.90;;;;;;5362077;26;19957;-53
2024/04/13 07:28:04;;;;;;;;;;;14.80;99.90;;;;;;5363605;26;19934;-52
2024/04/13 07:30:29;;;;;;;;;;;14.80;99.90;;;;;;5365259;26;19930;-55
2024/04/13 07:32:55;;;;;;;;;;;14.80;99.90;;;;;;5363740;26;19930;-54
2024/04/13 07:35:20;;;;;;;;;;;14.90;99.90;;;;;;5364643;26;19929;-48
2024/04/13 07:37:46;;;;;;;;;;;14.90;99.90;;;;;;5361047;26;19938;-47
2024/04/13 07:40:11;;;;;;;;;;;14.90;99.90;;;;;;5355677;26;19930;-48
2024/04/13 07:42:37;;;;;;;;;;;14.90;99.90;;;;;;5323433;26;19937;-47
2024/04/13 07:45:03;;;;;;;;;;;15.00;99.90;;;;;;5340329;26;20290;-48
2024/04/13 07:47:28;;;;;;;;;;;15.00;99.90;;;;;;5328902;26;19931;-48
2024/04/13 07:49:54;;;;;;;;;;;15.00;99.90;;;;;;5359588;26;19938;-49
2024/04/13 07:52:19;;;;;;;;;;;15.00;99.90;;;;;;5317546;26;19963;-48
2024/04/13 07:54:45;;;;;;;;;;;15.00;99.90;;;;;;5325547;26;19937;-47
2024/04/13 07:57:10;;;;;;;;;;;15.10;99.90;;;;;;5343458;26;19930;-47
2024/04/13 07:59:36;;;;;;;;;;;15.10;99.90;;;;;;5331330;26;19954;-48
2024/04/13 08:02:01;;;;;;;;;;;15.10;99.90;;;;;;5338429;26;19945;-50
2024/04/13 08:04:27;;;;;;;;;;;15.10;99.90;;;;;;5328670;26;19958;-47
2024/04/13 08:06:52;;;;;;;;;;;15.10;99.90;;;;;;5339072;26;19938;-51
2024/04/13 08:09:18;;;;;;;;;;;15.10;99.90;;;;;;5336870;26;19967;-47
2024/04/13 08:11:43;;;;;;;;;;;15.10;99.90;;;;;;5331106;26;19940;-49
2024/04/13 08:14:09;;;;;;;;;;;15.10;99.90;;;;;;5321551;26;19959;-47
2024/04/13 08:16:35;;;;;;;;;;;15.20;99.90;;;;;;5333771;26;19930;-48
2024/04/13 08:19:00;;;;;;;;;;;15.20;99.90;;;;;;5346663;26;19930;-47
2024/04/13 08:21:25;;;;;;;;;;;15.20;99.90;;;;;;5342859;26;20346;-51
2024/04/13 08:23:51;;;;;;;;;;;15.20;99.90;;;;;;5324579;26;19938;-48
2024/04/13 08:26:16;;;;;;;;;;;15.20;99.90;;;;;;5361934;26;19930;-47
2024/04/13 08:28:42;;;;;;;;;;;15.30;99.90;;;;;;5362931;26;19929;-49
2024/04/13 08:31:07;;;;;;;;;;;15.30;99.90;;;;;;5351345;26;19938;-51
2024/04/13 08:33:33;;;;;;;;;;;15.30;99.90;;;;;;5317536;26;19981;-55
2024/04/13 08:36:01;;;;;;;;;;;15.30;99.90;;;;;;5315780;26;19938;-51
2024/04/13 08:38:27;;;;;;;;;;;15.40;99.90;;;;;;5340664;26;19937;-51
2024/04/13 08:40:53;;;;;;;;;;;15.40;99.90;;;;;;5334290;26;19930;-51
2024/04/13 08:43:19;;;;;;;;;;;15.40;99.90;;;;;;5345738;26;19963;-51
2024/04/13 08:45:44;;;;;;;;;;;15.40;99.90;;;;;;5346527;26;19930;-50
2024/04/13 08:48:10;;;;;;;;;;;15.50;99.90;;;;;;5367762;26;20268;-51
2024/04/13 08:50:36;;;;;;;;;;;15.50;99.90;;;;;;5352625;26;19934;-48
2024/04/13 08:53:04;;;;;;;;;;;15.50;99.90;;;;;;5352038;26;19937;-47
2024/04/13 08:55:32;;;;;;;;;;;15.50;99.90;;;;;;5357557;26;20473;-48
2024/04/13 08:57:57;;;;;;;;;;;15.50;99.90;;;;;;5324391;26;20498;-52
2024/04/13 09:00:24;;;;;;;;;;;15.60;99.90;;;;;;5352124;26;19930;-48
2024/04/13 09:02:55;;;;;;;;;;;15.60;99.90;;;;;;5353949;26;19938;-48
2024/04/13 09:05:20;;;;;;;;;;;15.60;99.90;;;;;;5374517;26;19930;-48
2024/04/13 09:07:46;;;;;;;;;;;15.60;99.90;;;;;;5370936;26;19929;-47
2024/04/13 09:10:12;;;;;;;;;;;15.60;99.90;;;;;;5356389;26;19937;-47
2024/04/13 09:12:37;;;;;;;;;;;15.60;99.90;;;;;;5369206;26;20270;-49
2024/04/13 09:15:04;;;;;;;;;;;15.60;99.90;;;;;;5367099;26;19929;-47
2024/04/13 09:17:33;;;;;;;;;;;15.60;99.90;;;;;;5370422;26;19941;-47
2024/04/13 09:20:06;;;;;;;;;;;15.70;99.90;;;;;;5371309;26;19941;-47
2024/04/13 09:22:32;;;;;;;;;;;15.70;99.90;;;;;;5363985;26;20339;-47
2024/04/13 09:24:58;;;;;;;;;;;15.70;99.90;;;;;;5376406;26;19937;-48
2024/04/13 09:27:28;;;;;;;;;;;15.70;99.90;;;;;;5373779;26;19930;-47
2024/04/13 09:30:07;;;;;;;;;;;15.70;99.90;;;;;;5368943;26;19940;-47
2024/04/13 09:32:32;;;;;;;;;;;15.70;99.90;;;;;;5373826;26;19930;-47
2024/04/13 09:35:07;;;;;;;;;;;15.80;99.90;;;;;;5368535;26;19930;-48
2024/04/13 09:37:33;;;;;;;;;;;15.70;99.90;;;;;;5359963;26;19941;-47
2024/04/13 09:40:02;;;;;;;;;;;15.70;99.90;;;;;;5370128;26;19941;-47
2024/04/13 09:42:27;;;;;;;;;;;15.80;99.90;;;;;;5348333;26;19962;-47
2024/04/13 09:45:01;;;;;;;;;;;15.80;99.90;;;;;;5345467;26;20000;-47
2024/04/13 09:47:27;;;;;;;;;;;15.80;99.90;;;;;;5343883;26;19941;-47
2024/04/13 09:49:52;;;;;;;;;;;15.80;99.90;;;;;;5332776;26;19931;-47
2024/04/13 09:52:18;;;;;;;;;;;15.80;99.90;;;;;;5330698;26;19934;-47
2024/04/13 09:54:43;;;;;;;;;;;15.90;99.90;;;;;;5328090;26;20286;-50
2024/04/13 09:57:09;;;;;;;;;;;15.90;99.90;;;;;;5323366;26;19958;-47
2024/04/13 09:59:35;;;;;;;;;;;15.90;99.90;;;;;;5352309;26;19937;-48
2024/04/13 10:02:01;;;;;;;;;;;15.90;99.90;;;;;;5357096;26;19937;-47
2024/04/13 10:04:26;;;;;;;;;;;15.90;99.90;;;;;;5351959;26;19930;-47
2024/04/13 10:06:56;;;;;;;;;;;15.90;99.90;;;;;;5345174;26;19942;-47
2024/04/13 10:09:23;;;;;;;;;;;15.90;99.90;;;;;;5347601;26;20027;-49
2024/04/13 10:11:50;;;;;;;;;;;15.90;99.90;;;;;;5342187;26;19930;-48
2024/04/13 10:14:16;;;;;;;;;;;15.90;99.90;;;;;;5342355;26;20017;-47
2024/04/13 10:16:43;;;;;;;;;;;16.00;99.90;;;;;;5336136;26;19930;-47
2024/04/13 10:19:09;;;;;;;;;;;16.00;99.90;;;;;;5333764;26;19936;-48
2024/04/13 10:21:35;;;;;;;;;;;16.00;99.90;;;;;;5355793;26;19942;-48
2024/04/13 10:24:00;;;;;;;;;;;16.00;99.90;;;;;;5343685;26;19999;-49
2024/04/13 10:26:27;;;;;;;;;;;16.00;99.90;;;;;;5340496;26;19946;-49
2024/04/13 10:28:59;;;;;;;;;;;16.00;99.90;;;;;;5311031;27;19946;-50
2024/04/13 10:31:25;;;;;;;;;;;16.00;99.90;;;;;;5312552;26;19931;-51
2024/04/13 10:33:55;;;;;;;;;;;16.00;99.90;;;;;;5367707;26;19938;-49
2024/04/13 10:36:35;;;;;;;;;;;16.10;99.90;;;;;;5345399;26;19934;-51
2024/04/13 10:39:05;;;;;;;;;;;16.10;99.90;;;;;;5348624;26;19930;-51
2024/04/13 10:41:32;;;;;;;;;;;16.10;99.90;;;;;;5345197;26;19930;-52
2024/04/13 10:43:58;;;;;;;;;;;16.10;99.90;;;;;;5349198;26;19930;-52
2024/04/13 10:46:24;;;;;;;;;;;16.10;99.90;;;;;;5351984;26;19938;-51
2024/04/13 10:48:49;;;;;;;;;;;16.10;99.90;;;;;;5350050;26;19999;-49
2024/04/13 10:51:15;;;;;;;;;;;16.10;99.90;;;;;;5343359;26;19989;-51
2024/04/13 10:53:41;;;;;;;;;;;16.10;99.90;;;;;;5349305;26;19984;-52
2024/04/13 10:56:06;;;;;;;;;;;16.10;99.90;;;;;;5358015;26;19930;-52
2024/04/13 10:58:32;;;;;;;;;;;16.10;99.90;;;;;;5337457;26;20423;-51
2024/04/13 11:00:58;;;;;;;;;;;16.10;99.90;;;;;;5326663;26;19990;-51
2024/04/13 11:03:24;;;;;;;;;;;16.20;99.90;;;;;;5358557;26;20299;-52
2024/04/13 11:05:49;;;;;;;;;;;16.20;99.90;;;;;;5342194;26;19931;-52
2024/04/13 11:08:15;;;;;;;;;;;16.20;99.90;;;;;;5343064;26;19937;-51
2024/04/13 11:10:42;;;;;;;;;;;16.20;99.90;;;;;;5349190;26;20269;-51
2024/04/13 11:13:07;;;;;;;;;;;16.20;99.90;;;;;;5361951;26;20283;-51
2024/04/13 11:15:33;;;;;;;;;;;16.20;99.90;;;;;;5350815;26;19937;-53
2024/04/13 11:17:59;;;;;;;;;;;16.20;99.90;;;;;;5350863;26;19934;-52
2024/04/13 11:20:25;;;;;;;;;;;16.20;99.90;;;;;;5366406;26;19931;-53
2024/04/13 11:22:51;;;;;;;;;;;16.30;99.90;;;;;;5362328;26;19930;-53
2024/04/13 11:25:17;;;;;;;;;;;16.20;99.90;;;;;;5331580;26;19976;-53
2024/04/13 11:27:44;;;;;;;;;;;16.30;99.90;;;;;;5349740;26;19930;-51
2024/04/13 11:30:10;;;;;;;;;;;16.30;99.90;;;;;;5347959;26;19933;-52
2024/04/13 11:32:36;;;;;;;;;;;16.30;99.90;;;;;;5359976;26;19930;-53
2024/04/13 11:35:01;;;;;;;;;;;16.30;99.90;;;;;;5369057;26;19937;-48
2024/04/13 11:37:27;;;;;;;;;;;16.40;99.90;;;;;;5366416;26;20259;-47
2024/04/13 11:39:52;;;;;;;;;;;16.40;99.90;;;;;;5363232;26;20365;-47
2024/04/13 11:42:18;;;;;;;;;;;16.40;99.90;;;;;;5364808;26;19937;-48
2024/04/13 11:44:44;;;;;;;;;;;16.40;99.90;;;;;;5358286;26;19938;-48
2024/04/13 11:47:10;;;;;;;;;;;16.40;99.90;;;;;;5357187;26;19930;-51
2024/04/13 11:49:35;;;;;;;;;;;16.40;99.90;;;;;;5327708;26;19930;-48
2024/04/13 11:52:01;;;;;;;;;;;16.40;99.90;;;;;;5324868;26;20026;-48
2024/04/13 11:54:27;;;;;;;;;;;16.40;99.90;;;;;;5357157;26;20804;-50
2024/04/13 11:56:54;;;;;;;;;;;16.40;99.90;;;;;;5338904;26;19942;-47
2024/04/13 11:59:19;;;;;;;;;;;16.40;99.90;;;;;;5361460;26;19970;-52
2024/04/13 12:01:45;;;;;;;;;;;16.40;99.90;;;;;;5321420;26;20390;-47
2024/04/13 12:04:13;;;;;;;;;;;16.40;99.90;;;;;;5360936;26;19942;-48
2024/04/13 12:06:40;;;;;;;;;;;16.40;99.90;;;;;;5349431;26;19964;-47
2024/04/13 12:09:05;;;;;;;;;;;16.40;99.90;;;;;;5354500;26;19984;-48
2024/04/13 12:11:31;;;;;;;;;;;16.50;99.90;;;;;;5338856;26;19934;-49
2024/04/13 12:13:57;;;;;;;;;;;16.50;99.90;;;;;;5313725;26;19938;-48
2024/04/13 12:16:23;;;;;;;;;;;16.50;99.90;;;;;;5362915;26;19929;-48
2024/04/13 12:18:48;;;;;;;;;;;16.50;99.90;;;;;;5353468;26;19930;-48
2024/04/13 12:21:15;;;;;;;;;;;16.50;99.90;;;;;;5343096;26;19945;-48
2024/04/13 12:23:40;;;;;;;;;;;16.40;99.90;;;;;;5325371;26;20629;-47
2024/04/13 12:26:06;;;;;;;;;;;16.50;99.90;;;;;;5331430;26;19930;-49
2024/04/13 12:28:31;;;;;;;;;;;16.50;99.90;;;;;;5357548;26;19931;-47
2024/04/13 12:30:57;;;;;;;;;;;16.50;99.90;;;;;;5315436;26;19938;-49
2024/04/13 12:33:23;;;;;;;;;;;16.50;99.90;;;;;;5348546;26;19937;-49
2024/04/13 12:35:48;;;;;;;;;;;16.60;99.90;;;;;;5349010;26;19980;-48
2024/04/13 12:38:14;;;;;;;;;;;16.60;99.90;;;;;;5349493;26;19934;-49
2024/04/13 12:40:39;;;;;;;;;;;16.70;99.90;;;;;;5341504;26;19930;-48
2024/04/13 12:43:07;;;;;;;;;;;16.70;99.90;;;;;;5349310;26;19937;-49
2024/04/13 12:45:32;;;;;;;;;;;16.60;99.90;;;;;;5349795;26;20007;-48
2024/04/13 12:47:59;;;;;;;;;;;16.70;99.90;;;;;;5326704;26;19938;-49
2024/04/13 12:50:24;;;;;;;;;;;16.70;99.90;;;;;;5348674;26;19930;-48
2024/04/13 12:52:50;;;;;;;;;;;16.70;99.90;;;;;;5337667;26;19959;-47
2024/04/13 12:55:15;;;;;;;;;;;16.70;99.90;;;;;;5318506;26;19930;-48
2024/04/13 12:57:42;;;;;;;;;;;16.70;99.90;;;;;;5347989;26;19938;-47
2024/04/13 13:00:08;;;;;;;;;;;16.70;99.90;;;;;;5348771;26;19934;-49
2024/04/13 13:02:34;;;;;;;;;;;16.80;99.90;;;;;;5327512;26;19937;-48
2024/04/13 13:04:59;;;;;;;;;;;16.70;99.90;;;;;;5326367;26;20259;-47
2024/04/13 13:07:25;;;;;;;;;;;16.70;99.90;;;;;;5349519;26;20457;-48
2024/04/13 13:09:50;;;;;;;;;;;16.70;99.90;;;;;;5348805;26;19930;-48
2024/04/13 13:12:16;;;;;;;;;;;16.80;99.90;;;;;;5327720;26;20036;-47
2024/04/13 13:14:41;;;;;;;;;;;16.70;99.90;;;;;;5336649;26;19942;-47
2024/04/13 13:17:07;;;;;;;;;;;16.70;99.90;;;;;;5350703;26;19942;-47
2024/04/13 13:19:33;;;;;;;;;;;16.80;99.90;;;;;;5325365;26;19930;-48
2024/04/13 13:21:58;;;;;;;;;;;16.80;99.90;;;;;;5332483;26;20325;-48
2024/04/13 13:24:24;;;;;;;;;;;16.80;99.90;;;;;;5337296;26;19991;-47
2024/04/13 13:26:49;;;;;;;;;;;16.70;99.90;;;;;;5333970;26;19934;-47
2024/04/13 13:29:15;;;;;;;;;;;16.70;99.90;;;;;;5347912;26;20263;-47
2024/04/13 13:31:41;;;;;;;;;;;16.80;99.90;;;;;;5347608;26;20032;-48
2024/04/13 13:34:06;;;;;;;;;;;16.70;99.90;;;;;;5349939;26;20247;-50
2024/04/13 13:36:32;;;;;;;;;;;16.80;99.90;;;;;;5349989;26;19938;-49
2024/04/13 13:38:57;;;;;;;;;;;16.70;99.90;;;;;;5350117;26;19942;-49
2024/04/13 13:41:24;;;;;;;;;;;16.80;99.90;;;;;;5331547;26;20026;-49
2024/04/13 13:43:50;;;;;;;;;;;16.70;99.90;;;;;;5345111;26;20000;-48
2024/04/13 13:46:15;;;;;;;;;;;16.80;99.90;;;;;;5331202;26;19934;-47
2024/04/13 13:48:41;;;;;;;;;;;16.70;99.90;;;;;;5329598;26;20435;-48
2024/04/13 13:51:07;;;;;;;;;;;16.80;99.90;;;;;;5348231;26;19977;-48
2024/04/13 13:53:33;;;;;;;;;;;16.80;99.90;;;;;;5324985;26;19936;-49
2024/04/13 13:55:58;;;;;;;;;;;16.80;99.90;;;;;;5330345;26;19937;-47
2024/04/13 13:58:24;;;;;;;;;;;16.80;99.90;;;;;;5337945;26;19958;-50
2024/04/13 14:00:49;;;;;;;;;;;16.80;99.90;;;;;;5333982;26;19930;-51
2024/04/13 14:03:15;;;;;;;;;;;16.80;99.90;;;;;;5348832;26;20018;-51
2024/04/13 14:05:41;;;;;;;;;;;16.80;99.90;;;;;;5348822;26;19930;-51
2024/04/13 14:08:06;;;;;;;;;;;16.80;99.90;;;;;;5326165;26;20009;-51
2024/04/13 14:10:32;;;;;;;;;;;16.80;99.90;;;;;;5349345;26;19946;-48